Keskustelut

Uistelijan elektroniikka - näytä keskustelu

 
[Takaisin keskustelulistaan]
 

Otsikko : [Vt] Apua autopilotin valintaan
Kirjoittaja : Mici70 Päivämäärä : 26/2/2023 12:49:37 Lukukerrat : 3481
Sähköpostiosoite :   Liite : Ei ole
WWW-osoite :

Löysinki ulkomaisista lähteistä kun alkoi oikeesti kiinnostamaan. Toi veteraani ei juurikaan lataa alle 1000 rpm. Siitä alkaa nousemaan saavuttaa lopulta 120w tehon. Käytännössä se on noin 1300 rpm. Akkujännitteissä se on 12v jännitteellä 10A ja 13,8v jännitteellä 8,7A. Ei oikein toimi omassa veneessä tuo. Tuskin tuo vanhus kuitenkaan enää maksimia saavuttaa. Teoreettisesti matkanopeudella pitäs jaksaa pitää pilotilla jatkuvasti ajaessa 12,6v jännite. Uistellessa siis ei riitä mitenkään.
Periaatteessa noi 2 80Ah akkua pitäs siis riittää 16 tunnin ajaksi ilman mitään latausta. Tässä täytyy ottaa huomioon että uistelunopeutena on ollu 2,8-3,2 km/h kuhia ettiessä. Jo nopeuden nosto 3,5-4 km/h voi vaikuttaa vähän, mutta totuus on ettei toi moottori fysiikan lakeja riko.

[Edellinen kirjoitus] [Kerro kaverille][Seuraava kirjoitus]
Keskustelualueille kirjoittaminen vaatii nimimerkin varauksen ja tuolla nimimerkillä sisään kirjautumisen.

 Keskusteluhistoria 
 Apua autop... eskil - 21/2/2023 19:55:35, ikä 1173pv, luettu 4663
 [Vt] Apua ... Mici70 - 21/2/2023 20:38:07, ikä 1173pv, luettu 3109
 [Vt] Apua ... Savantti  - 21/2/2023 20:41:05, ikä 1173pv, luettu 3082
 [Vt] Apua ... Janne1 - 21/2/2023 21:04:37, ikä 1173pv, luettu 3129
 [Vt] Apua ... Janne1 - 21/2/2023 21:36:44, ikä 1173pv, luettu 3112
 [Vt] Apua ... Kössi - 22/2/2023 9:32:45, ikä 1172pv, luettu 3079
 [Vt] Apua ... eskil - 22/2/2023 20:33:30, ikä 1172pv, luettu 2954
 [Vt] Apua ... eskil - 22/2/2023 20:35:36, ikä 1172pv, luettu 2938
 [Vt] Apua ... Kössi - 22/2/2023 23:48:37, ikä 1172pv, luettu 2939
 [Vt] Apua ... Mici70 - 24/2/2023 8:44:05, ikä 1170pv, luettu 2835
 [Vt] Apua ... Vee-Pee  - 24/2/2023 11:25:37, ikä 1170pv, luettu 2780
 [Vt] Apua ... Mici70 - 24/2/2023 13:02:54, ikä 1170pv, luettu 2826
 [Vt] Apua ... Mici70 - 24/2/2023 14:19:18, ikä 1170pv, luettu 2761
 [Vt] Apua ... Vee-Pee  - 25/2/2023 11:27:29, ikä 1169pv, luettu 2705
 [Vt] Apua ... Vee-Pee  - 25/2/2023 11:40:03, ikä 1169pv, luettu 2736
 [Vt] Apua ... Mici70 - 25/2/2023 13:37:20, ikä 1169pv, luettu 2699
 [Vt] Apua ... antsu  - 25/2/2023 17:19:56, ikä 1169pv, luettu 2743
 [Vt] Apua ... Mici70 - 25/2/2023 17:40:47, ikä 1169pv, luettu 2740
 [Vt] Apua ... tkorkka  - 25/2/2023 18:22:53, ikä 1169pv, luettu 2863
 [Vt] Apua ... Vee-Pee  - 25/2/2023 20:44:28, ikä 1169pv, luettu 2793
 [Vt] Apua ... Kössi - 25/2/2023 21:35:13, ikä 1169pv, luettu 2731
 [Vt] Apua ... Mici70 - 25/2/2023 21:58:59, ikä 1169pv, luettu 2890
 [Vt] Apua ... Kössi - 25/2/2023 22:18:00, ikä 1169pv, luettu 2897
 [Vt] Apua ... Mici70 - 25/2/2023 22:55:59, ikä 1169pv, luettu 2870
 [Vt] Apua ... tkorkka  - 26/2/2023 2:25:58, ikä 1168pv, luettu 3064
 [Vt] Apua ... Mici70 - 26/2/2023 7:49:52, ikä 1168pv, luettu 3193
 [Vt] Apua ... Mici70 - 26/2/2023 8:03:05, ikä 1168pv, luettu 3201
 [Vt] Apua ... tkorkka  - 26/2/2023 8:47:37, ikä 1168pv, luettu 3271
 [Vt] Apua ... Mici70 - 26/2/2023 9:31:37, ikä 1168pv, luettu 3265
 [Vt] Apua ... tkorkka  - 26/2/2023 9:50:59, ikä 1168pv, luettu 3288
 [Vt] Apua ... Mici70 - 26/2/2023 10:25:10, ikä 1168pv, luettu 3344
 [Vt] Apua ... tkorkka  - 25/2/2023 22:15:24, ikä 1169pv, luettu 2893
 [Vt] Apua ... Mici70 - 25/2/2023 23:21:53, ikä 1169pv, luettu 2994
 [Vt] Apua ... Kössi - 25/2/2023 23:53:02, ikä 1169pv, luettu 3007
 [Vt] Apua ... antsu  - 26/2/2023 11:00:53, ikä 1168pv, luettu 3346
 [Vt] Apua ... Mici70 - 26/2/2023 11:09:44, ikä 1168pv, luettu 3344
 [Vt] Apua ... antsu  - 26/2/2023 12:03:54, ikä 1168pv, luettu 3371
 [Vt] Apua ... Mici70 - 26/2/2023 12:49:37, ikä 1168pv, luettu 3481
 [Vt] Apua ... Mici70 - 26/2/2023 12:54:44, ikä 1168pv, luettu 3577
 [Vt] Apua ... Räiskis  - 27/2/2023 7:00:26, ikä 1167pv, luettu 3731
 [Vt] Apua ... tkorkka  - 27/2/2023 7:52:47, ikä 1167pv, luettu 3797
 [Vt] Apua ... Mici70 - 27/2/2023 10:05:34, ikä 1167pv, luettu 3738
 [Vt] Apua ... Vee-Pee  - 24/2/2023 11:33:04, ikä 1170pv, luettu 2833
 [Vt] Apua ... Juha Hämäläinen - 24/2/2023 19:00:48, ikä 1170pv, luettu 2682
 [Vt] Apua ... Kössi - 24/2/2023 21:53:39, ikä 1170pv, luettu 2704
 [Vt] Apua ... toni  - 24/2/2023 23:27:54, ikä 1170pv, luettu 2671
 [Vt] Apua ... Mici70 - 25/2/2023 8:26:10, ikä 1169pv, luettu 2741
 [Vt] Apua ... Vee-Pee  - 25/2/2023 11:32:28, ikä 1169pv, luettu 2738
 [Vt] Apua ... toni  - 25/2/2023 12:31:37, ikä 1169pv, luettu 2705
 [Vt] Apua ... Kössi - 25/2/2023 13:23:54, ikä 1169pv, luettu 2732
 [Vt] Apua ... toni  - 25/2/2023 17:41:06, ikä 1169pv, luettu 2786
 [Vt] Apua ... Mici70 - 25/2/2023 13:44:25, ikä 1169pv, luettu 2717
 [Vt] Apua ... Kössi - 25/2/2023 15:40:55, ikä 1169pv, luettu 2738

  285996542